sensor_id;sensor_type;location;lat;lon;timestamp;temperature;humidity
22319;DHT22;11327;52.334;9.506;2024-02-26T00:01:25;2.70;99.90
22319;DHT22;11327;52.334;9.506;2024-02-26T00:04:45;2.70;99.90
22319;DHT22;11327;52.334;9.506;2024-02-26T00:08:06;2.70;99.90
22319;DHT22;11327;52.334;9.506;2024-02-26T00:11:27;2.70;99.90
22319;DHT22;11327;52.334;9.506;2024-02-26T00:14:47;2.60;99.90
22319;DHT22;11327;52.334;9.506;2024-02-26T00:18:10;2.60;99.90
22319;DHT22;11327;52.334;9.506;2024-02-26T00:21:30;2.50;99.90
22319;DHT22;11327;52.334;9.506;2024-02-26T00:24:51;2.50;99.90
22319;DHT22;11327;52.334;9.506;2024-02-26T00:28:12;2.50;99.90
22319;DHT22;11327;52.334;9.506;2024-02-26T00:31:33;2.50;99.90
22319;DHT22;11327;52.334;9.506;2024-02-26T00:34:54;2.60;99.90
22319;DHT22;11327;52.334;9.506;2024-02-26T00:38:15;2.60;99.90
22319;DHT22;11327;52.334;9.506;2024-02-26T00:41:42;2.60;99.90
22319;DHT22;11327;52.334;9.506;2024-02-26T00:45:02;2.60;99.90
22319;DHT22;11327;52.334;9.506;2024-02-26T00:48:23;2.60;99.90
22319;DHT22;11327;52.334;9.506;2024-02-26T00:51:46;2.50;99.90
22319;DHT22;11327;52.334;9.506;2024-02-26T00:55:07;2.50;99.90
22319;DHT22;11327;52.334;9.506;2024-02-26T00:58:28;2.50;99.90
22319;DHT22;11327;52.334;9.506;2024-02-26T01:01:48;2.50;99.90
22319;DHT22;11327;52.334;9.506;2024-02-26T01:05:09;2.50;99.90
22319;DHT22;11327;52.334;9.506;2024-02-26T01:08:30;2.50;99.90
22319;DHT22;11327;52.334;9.506;2024-02-26T01:11:52;2.50;99.90
22319;DHT22;11327;52.334;9.506;2024-02-26T01:15:12;2.60;99.90
22319;DHT22;11327;52.334;9.506;2024-02-26T01:18:33;2.60;99.90
22319;DHT22;11327;52.334;9.506;2024-02-26T01:21:54;2.60;99.90
22319;DHT22;11327;52.334;9.506;2024-02-26T01:25:15;2.50;99.90
22319;DHT22;11327;52.334;9.506;2024-02-26T01:28:36;2.40;99.90
22319;DHT22;11327;52.334;9.506;2024-02-26T01:31:57;2.40;99.90
22319;DHT22;11327;52.334;9.506;2024-02-26T01:35:17;2.40;99.90
22319;DHT22;11327;52.334;9.506;2024-02-26T01:38:38;2.40;99.90
22319;DHT22;11327;52.334;9.506;2024-02-26T01:41:59;2.30;99.90
22319;DHT22;11327;52.334;9.506;2024-02-26T01:45:19;2.40;99.90
22319;DHT22;11327;52.334;9.506;2024-02-26T01:48:45;2.40;99.90
22319;DHT22;11327;52.334;9.506;2024-02-26T01:52:08;2.50;99.90
22319;DHT22;11327;52.334;9.506;2024-02-26T01:55:30;2.50;99.90
22319;DHT22;11327;52.334;9.506;2024-02-26T01:58:51;2.50;99.90
22319;DHT22;11327;52.334;9.506;2024-02-26T02:02:12;2.50;99.90
22319;DHT22;11327;52.334;9.506;2024-02-26T02:05:36;2.50;99.90
22319;DHT22;11327;52.334;9.506;2024-02-26T02:08:59;2.50;99.90
22319;DHT22;11327;52.334;9.506;2024-02-26T02:12:22;2.50;99.90
22319;DHT22;11327;52.334;9.506;2024-02-26T02:15:42;2.50;99.90
22319;DHT22;11327;52.334;9.506;2024-02-26T02:19:03;2.60;99.90
22319;DHT22;11327;52.334;9.506;2024-02-26T02:22:24;2.60;99.90
22319;DHT22;11327;52.334;9.506;2024-02-26T02:25:45;3.30;99.90
22319;DHT22;11327;52.334;9.506;2024-02-26T02:29:06;2.70;99.90
22319;DHT22;11327;52.334;9.506;2024-02-26T02:32:28;2.60;99.90
22319;DHT22;11327;52.334;9.506;2024-02-26T02:35:49;2.50;99.90
22319;DHT22;11327;52.334;9.506;2024-02-26T02:39:11;2.40;99.90
22319;DHT22;11327;52.334;9.506;2024-02-26T02:42:32;2.50;99.90
22319;DHT22;11327;52.334;9.506;2024-02-26T02:45:52;2.50;99.90
22319;DHT22;11327;52.334;9.506;2024-02-26T02:49:13;2.40;99.90
22319;DHT22;11327;52.334;9.506;2024-02-26T02:52:34;2.40;99.90
22319;DHT22;11327;52.334;9.506;2024-02-26T02:55:55;2.30;99.90
22319;DHT22;11327;52.334;9.506;2024-02-26T02:59:16;2.30;99.90
22319;DHT22;11327;52.334;9.506;2024-02-26T03:02:37;2.30;99.90
22319;DHT22;11327;52.334;9.506;2024-02-26T03:05:57;2.20;99.90
22319;DHT22;11327;52.334;9.506;2024-02-26T03:09:18;2.20;99.90
22319;DHT22;11327;52.334;9.506;2024-02-26T03:12:39;2.20;99.90
22319;DHT22;11327;52.334;9.506;2024-02-26T03:16:05;3.30;99.90
22319;DHT22;11327;52.334;9.506;2024-02-26T03:19:26;2.10;99.90
22319;DHT22;11327;52.334;9.506;2024-02-26T03:22:46;2.20;99.90
22319;DHT22;11327;52.334;9.506;2024-02-26T03:26:07;2.20;99.90
22319;DHT22;11327;52.334;9.506;2024-02-26T03:29:29;2.20;99.90
22319;DHT22;11327;52.334;9.506;2024-02-26T03:32:50;2.20;99.90
22319;DHT22;11327;52.334;9.506;2024-02-26T03:36:10;2.30;99.90
22319;DHT22;11327;52.334;9.506;2024-02-26T03:39:31;2.30;99.90
22319;DHT22;11327;52.334;9.506;2024-02-26T03:42:52;2.30;99.90
22319;DHT22;11327;52.334;9.506;2024-02-26T03:46:14;2.20;99.90
22319;DHT22;11327;52.334;9.506;2024-02-26T03:49:35;2.20;99.90
22319;DHT22;11327;52.334;9.506;2024-02-26T03:52:55;2.10;99.90
22319;DHT22;11327;52.334;9.506;2024-02-26T03:56:18;2.10;99.90
22319;DHT22;11327;52.334;9.506;2024-02-26T03:59:38;1.20;99.90
22319;DHT22;11327;52.334;9.506;2024-02-26T04:03:00;2.00;99.90
22319;DHT22;11327;52.334;9.506;2024-02-26T04:06:20;2.00;99.90
22319;DHT22;11327;52.334;9.506;2024-02-26T04:09:41;2.00;99.90
22319;DHT22;11327;52.334;9.506;2024-02-26T04:13:02;2.00;99.90
22319;DHT22;11327;52.334;9.506;2024-02-26T04:16:24;2.00;99.90
22319;DHT22;11327;52.334;9.506;2024-02-26T04:19:44;2.00;99.90
22319;DHT22;11327;52.334;9.506;2024-02-26T04:23:05;2.10;99.90
22319;DHT22;11327;52.334;9.506;2024-02-26T04:26:26;2.10;99.90
22319;DHT22;11327;52.334;9.506;2024-02-26T04:29:47;2.10;99.90
22319;DHT22;11327;52.334;9.506;2024-02-26T04:33:08;2.20;99.90
22319;DHT22;11327;52.334;9.506;2024-02-26T04:36:28;2.20;99.90
22319;DHT22;11327;52.334;9.506;2024-02-26T04:39:49;2.20;99.90
22319;DHT22;11327;52.334;9.506;2024-02-26T04:43:10;2.20;99.90
22319;DHT22;11327;52.334;9.506;2024-02-26T04:46:30;2.30;99.90
22319;DHT22;11327;52.334;9.506;2024-02-26T04:49:51;2.30;99.90
22319;DHT22;11327;52.334;9.506;2024-02-26T04:53:12;2.30;99.90
22319;DHT22;11327;52.334;9.506;2024-02-26T04:56:33;2.30;99.90
22319;DHT22;11327;52.334;9.506;2024-02-26T04:59:54;2.20;99.90
22319;DHT22;11327;52.334;9.506;2024-02-26T05:03:14;2.30;99.90
22319;DHT22;11327;52.334;9.506;2024-02-26T05:06:36;2.20;99.90
22319;DHT22;11327;52.334;9.506;2024-02-26T05:09:58;2.20;99.90
22319;DHT22;11327;52.334;9.506;2024-02-26T05:13:20;2.30;99.90
22319;DHT22;11327;52.334;9.506;2024-02-26T05:16:41;2.40;99.90
22319;DHT22;11327;52.334;9.506;2024-02-26T05:20:02;2.40;99.90
22319;DHT22;11327;52.334;9.506;2024-02-26T05:23:23;2.40;99.90
22319;DHT22;11327;52.334;9.506;2024-02-26T05:26:45;2.50;99.90
22319;DHT22;11327;52.334;9.506;2024-02-26T05:30:06;2.50;99.90
22319;DHT22;11327;52.334;9.506;2024-02-26T05:33:27;2.50;99.90
22319;DHT22;11327;52.334;9.506;2024-02-26T05:36:48;2.50;99.90
22319;DHT22;11327;52.334;9.506;2024-02-26T05:40:09;2.40;99.90
22319;DHT22;11327;52.334;9.506;2024-02-26T05:43:30;2.50;99.90
22319;DHT22;11327;52.334;9.506;2024-02-26T05:46:51;2.50;99.90
22319;DHT22;11327;52.334;9.506;2024-02-26T05:50:12;2.50;99.90
22319;DHT22;11327;52.334;9.506;2024-02-26T05:53:33;2.50;99.90
22319;DHT22;11327;52.334;9.506;2024-02-26T05:56:54;2.50;99.90
22319;DHT22;11327;52.334;9.506;2024-02-26T06:00:15;2.50;99.90
22319;DHT22;11327;52.334;9.506;2024-02-26T06:03:36;2.50;99.90
22319;DHT22;11327;52.334;9.506;2024-02-26T06:06:56;2.60;99.90
22319;DHT22;11327;52.334;9.506;2024-02-26T06:10:18;2.60;99.90
22319;DHT22;11327;52.334;9.506;2024-02-26T06:13:40;2.60;99.90
22319;DHT22;11327;52.334;9.506;2024-02-26T06:17:01;2.60;99.90
22319;DHT22;11327;52.334;9.506;2024-02-26T06:20:22;2.60;99.90
22319;DHT22;11327;52.334;9.506;2024-02-26T06:23:42;2.60;99.90
22319;DHT22;11327;52.334;9.506;2024-02-26T06:27:03;2.70;99.90
22319;DHT22;11327;52.334;9.506;2024-02-26T06:30:24;2.80;99.90
22319;DHT22;11327;52.334;9.506;2024-02-26T06:33:45;2.80;99.90
22319;DHT22;11327;52.334;9.506;2024-02-26T06:37:05;2.70;99.90
22319;DHT22;11327;52.334;9.506;2024-02-26T06:40:26;2.70;99.90
22319;DHT22;11327;52.334;9.506;2024-02-26T06:43:47;2.60;99.90
22319;DHT22;11327;52.334;9.506;2024-02-26T06:47:08;2.70;99.90
22319;DHT22;11327;52.334;9.506;2024-02-26T06:50:28;2.70;99.90
22319;DHT22;11327;52.334;9.506;2024-02-26T06:53:49;2.80;99.90
22319;DHT22;11327;52.334;9.506;2024-02-26T06:57:10;2.80;99.90
22319;DHT22;11327;52.334;9.506;2024-02-26T07:00:30;2.90;99.90
22319;DHT22;11327;52.334;9.506;2024-02-26T07:03:51;2.90;99.90
22319;DHT22;11327;52.334;9.506;2024-02-26T07:07:14;2.90;99.90
22319;DHT22;11327;52.334;9.506;2024-02-26T07:10:34;2.90;99.90
22319;DHT22;11327;52.334;9.506;2024-02-26T07:13:55;2.90;99.90
22319;DHT22;11327;52.334;9.506;2024-02-26T07:17:16;2.90;99.90
22319;DHT22;11327;52.334;9.506;2024-02-26T07:20:37;3.00;99.90
22319;DHT22;11327;52.334;9.506;2024-02-26T07:23:58;3.00;99.90
22319;DHT22;11327;52.334;9.506;2024-02-26T07:27:18;3.10;99.90
22319;DHT22;11327;52.334;9.506;2024-02-26T07:30:39;3.10;99.90
22319;DHT22;11327;52.334;9.506;2024-02-26T07:34:00;3.00;99.90
22319;DHT22;11327;52.334;9.506;2024-02-26T07:37:21;3.10;99.90
22319;DHT22;11327;52.334;9.506;2024-02-26T07:40:41;3.10;99.90
22319;DHT22;11327;52.334;9.506;2024-02-26T07:44:02;3.20;99.90
22319;DHT22;11327;52.334;9.506;2024-02-26T07:47:23;3.20;99.90
22319;DHT22;11327;52.334;9.506;2024-02-26T07:50:43;3.20;99.90
22319;DHT22;11327;52.334;9.506;2024-02-26T07:54:04;3.30;99.90
22319;DHT22;11327;52.334;9.506;2024-02-26T07:57:25;3.30;99.90
22319;DHT22;11327;52.334;9.506;2024-02-26T08:00:45;3.40;99.90
22319;DHT22;11327;52.334;9.506;2024-02-26T08:04:07;3.40;99.90
22319;DHT22;11327;52.334;9.506;2024-02-26T08:07:27;3.40;99.90
22319;DHT22;11327;52.334;9.506;2024-02-26T08:10:49;3.40;99.90
22319;DHT22;11327;52.334;9.506;2024-02-26T08:14:09;3.50;99.90
22319;DHT22;11327;52.334;9.506;2024-02-26T08:17:30;3.50;99.90
22319;DHT22;11327;52.334;9.506;2024-02-26T08:20:51;3.60;99.90
22319;DHT22;11327;52.334;9.506;2024-02-26T08:24:12;3.60;99.90
22319;DHT22;11327;52.334;9.506;2024-02-26T08:27:32;3.60;99.90
22319;DHT22;11327;52.334;9.506;2024-02-26T08:30:53;3.70;99.90
22319;DHT22;11327;52.334;9.506;2024-02-26T08:34:14;3.70;99.90
22319;DHT22;11327;52.334;9.506;2024-02-26T08:37:35;3.80;99.90
22319;DHT22;11327;52.334;9.506;2024-02-26T08:40:55;3.40;99.90
22319;DHT22;11327;52.334;9.506;2024-02-26T08:44:16;3.90;99.90
22319;DHT22;11327;52.334;9.506;2024-02-26T08:47:37;3.90;99.90
22319;DHT22;11327;52.334;9.506;2024-02-26T08:50:57;3.90;99.90
22319;DHT22;11327;52.334;9.506;2024-02-26T08:54:18;3.90;99.90
22319;DHT22;11327;52.334;9.506;2024-02-26T08:57:39;3.90;99.90
22319;DHT22;11327;52.334;9.506;2024-02-26T09:00:59;4.00;99.90
22319;DHT22;11327;52.334;9.506;2024-02-26T09:04:20;4.00;99.90
22319;DHT22;11327;52.334;9.506;2024-02-26T09:07:41;4.10;99.90
22319;DHT22;11327;52.334;9.506;2024-02-26T09:11:02;4.10;99.90
22319;DHT22;11327;52.334;9.506;2024-02-26T09:14:23;4.20;99.90
22319;DHT22;11327;52.334;9.506;2024-02-26T09:17:44;4.20;99.90
22319;DHT22;11327;52.334;9.506;2024-02-26T09:21:06;4.20;99.90
22319;DHT22;11327;52.334;9.506;2024-02-26T09:24:27;4.30;99.90
22319;DHT22;11327;52.334;9.506;2024-02-26T09:27:47;4.30;99.90
22319;DHT22;11327;52.334;9.506;2024-02-26T09:31:08;4.30;99.90
22319;DHT22;11327;52.334;9.506;2024-02-26T09:34:29;4.40;99.90
22319;DHT22;11327;52.334;9.506;2024-02-26T09:37:50;4.40;99.90
22319;DHT22;11327;52.334;9.506;2024-02-26T09:41:14;4.40;99.90
22319;DHT22;11327;52.334;9.506;2024-02-26T09:44:36;4.40;99.90
22319;DHT22;11327;52.334;9.506;2024-02-26T09:47:59;6.70;99.90
22319;DHT22;11327;52.334;9.506;2024-02-26T09:51:22;4.50;99.90
22319;DHT22;11327;52.334;9.506;2024-02-26T09:54:48;4.50;99.90
22319;DHT22;11327;52.334;9.506;2024-02-26T09:58:10;4.30;99.90
22319;DHT22;11327;52.334;9.506;2024-02-26T10:01:31;4.70;99.90
22319;DHT22;11327;52.334;9.506;2024-02-26T10:04:54;4.70;99.90
22319;DHT22;11327;52.334;9.506;2024-02-26T10:08:17;4.80;99.90
22319;DHT22;11327;52.334;9.506;2024-02-26T10:11:40;4.90;99.90
22319;DHT22;11327;52.334;9.506;2024-02-26T10:15:03;5.00;99.90
22319;DHT22;11327;52.334;9.506;2024-02-26T10:18:24;5.00;99.90
22319;DHT22;11327;52.334;9.506;2024-02-26T10:21:44;5.10;99.90
22319;DHT22;11327;52.334;9.506;2024-02-26T10:25:05;5.20;99.90
22319;DHT22;11327;52.334;9.506;2024-02-26T10:28:29;5.10;99.90
22319;DHT22;11327;52.334;9.506;2024-02-26T10:31:53;5.20;99.90
22319;DHT22;11327;52.334;9.506;2024-02-26T10:35:15;5.20;99.90
22319;DHT22;11327;52.334;9.506;2024-02-26T10:38:37;5.30;99.90
22319;DHT22;11327;52.334;9.506;2024-02-26T10:41:59;5.30;99.90
22319;DHT22;11327;52.334;9.506;2024-02-26T10:45:22;5.40;99.90
22319;DHT22;11327;52.334;9.506;2024-02-26T10:48:51;5.40;99.90
22319;DHT22;11327;52.334;9.506;2024-02-26T10:52:12;5.50;99.90
22319;DHT22;11327;52.334;9.506;2024-02-26T10:55:35;5.60;99.90
22319;DHT22;11327;52.334;9.506;2024-02-26T10:58:58;5.70;99.90
22319;DHT22;11327;52.334;9.506;2024-02-26T11:02:20;5.70;99.90
22319;DHT22;11327;52.334;9.506;2024-02-26T11:05:41;5.80;99.90
22319;DHT22;11327;52.334;9.506;2024-02-26T11:09:04;5.80;99.90
22319;DHT22;11327;52.334;9.506;2024-02-26T11:12:28;5.90;99.90
22319;DHT22;11327;52.334;9.506;2024-02-26T11:15:49;5.90;99.90
22319;DHT22;11327;52.334;9.506;2024-02-26T11:19:11;6.00;99.90
22319;DHT22;11327;52.334;9.506;2024-02-26T11:22:34;6.10;99.90
22319;DHT22;11327;52.334;9.506;2024-02-26T11:25:56;6.20;99.90
22319;DHT22;11327;52.334;9.506;2024-02-26T11:29:22;6.20;99.90
22319;DHT22;11327;52.334;9.506;2024-02-26T11:32:46;6.30;99.90
22319;DHT22;11327;52.334;9.506;2024-02-26T11:36:09;6.40;99.90
22319;DHT22;11327;52.334;9.506;2024-02-26T11:39:31;6.50;99.90
22319;DHT22;11327;52.334;9.506;2024-02-26T11:42:55;6.60;99.90
22319;DHT22;11327;52.334;9.506;2024-02-26T11:46:30;6.70;99.90
22319;DHT22;11327;52.334;9.506;2024-02-26T11:49:51;6.70;99.90
22319;DHT22;11327;52.334;9.506;2024-02-26T11:53:27;6.80;99.90
22319;DHT22;11327;52.334;9.506;2024-02-26T11:56:50;6.90;99.90
22319;DHT22;11327;52.334;9.506;2024-02-26T12:00:12;7.00;99.90
22319;DHT22;11327;52.334;9.506;2024-02-26T12:03:33;7.10;99.90
22319;DHT22;11327;52.334;9.506;2024-02-26T12:06:56;7.90;99.90
22319;DHT22;11327;52.334;9.506;2024-02-26T12:10:26;7.40;99.90
22319;DHT22;11327;52.334;9.506;2024-02-26T12:13:49;7.50;99.90
22319;DHT22;11327;52.334;9.506;2024-02-26T12:17:21;7.60;99.90
22319;DHT22;11327;52.334;9.506;2024-02-26T12:20:42;7.80;99.90
22319;DHT22;11327;52.334;9.506;2024-02-26T12:24:16;7.90;99.90
22319;DHT22;11327;52.334;9.506;2024-02-26T12:27:34;7.90;99.90
22319;DHT22;11327;52.334;9.506;2024-02-26T12:30:54;9.10;99.90
22319;DHT22;11327;52.334;9.506;2024-02-26T12:34:15;8.20;99.90
22319;DHT22;11327;52.334;9.506;2024-02-26T12:37:37;8.00;99.90
22319;DHT22;11327;52.334;9.506;2024-02-26T12:40:59;8.10;99.90
22319;DHT22;11327;52.334;9.506;2024-02-26T12:44:26;8.10;99.90
22319;DHT22;11327;52.334;9.506;2024-02-26T12:47:47;8.10;99.90
22319;DHT22;11327;52.334;9.506;2024-02-26T12:51:10;8.10;99.90
22319;DHT22;11327;52.334;9.506;2024-02-26T12:54:33;8.20;99.90
22319;DHT22;11327;52.334;9.506;2024-02-26T12:57:54;8.20;99.90
22319;DHT22;11327;52.334;9.506;2024-02-26T13:01:17;8.20;99.90
22319;DHT22;11327;52.334;9.506;2024-02-26T13:04:40;8.20;99.90
22319;DHT22;11327;52.334;9.506;2024-02-26T13:08:01;8.20;99.90
22319;DHT22;11327;52.334;9.506;2024-02-26T13:11:22;8.30;99.90
22319;DHT22;11327;52.334;9.506;2024-02-26T13:14:43;8.30;99.90
22319;DHT22;11327;52.334;9.506;2024-02-26T13:18:11;8.20;99.90
22319;DHT22;11327;52.334;9.506;2024-02-26T13:21:32;8.20;99.90
22319;DHT22;11327;52.334;9.506;2024-02-26T13:24:55;8.20;99.90
22319;DHT22;11327;52.334;9.506;2024-02-26T13:28:17;8.30;99.90
22319;DHT22;11327;52.334;9.506;2024-02-26T13:31:39;8.30;99.90
22319;DHT22;11327;52.334;9.506;2024-02-26T13:35:13;8.30;99.90
22319;DHT22;11327;52.334;9.506;2024-02-26T13:38:34;8.20;99.90
22319;DHT22;11327;52.334;9.506;2024-02-26T13:41:55;8.30;99.90
22319;DHT22;11327;52.334;9.506;2024-02-26T13:45:17;9.10;99.90
22319;DHT22;11327;52.334;9.506;2024-02-26T13:48:38;8.30;99.90
22319;DHT22;11327;52.334;9.506;2024-02-26T13:51:58;8.40;99.90
22319;DHT22;11327;52.334;9.506;2024-02-26T13:55:19;8.30;99.90
22319;DHT22;11327;52.334;9.506;2024-02-26T13:58:42;8.60;99.90
22319;DHT22;11327;52.334;9.506;2024-02-26T14:02:02;8.20;99.90
22319;DHT22;11327;52.334;9.506;2024-02-26T14:05:24;8.20;99.90
22319;DHT22;11327;52.334;9.506;2024-02-26T14:08:45;8.20;99.90
22319;DHT22;11327;52.334;9.506;2024-02-26T14:12:05;8.10;99.90
22319;DHT22;11327;52.334;9.506;2024-02-26T14:15:27;8.10;99.90
22319;DHT22;11327;52.334;9.506;2024-02-26T14:18:49;8.10;99.90
22319;DHT22;11327;52.334;9.506;2024-02-26T14:22:13;8.00;99.90
22319;DHT22;11327;52.334;9.506;2024-02-26T14:25:35;8.00;99.90
22319;DHT22;11327;52.334;9.506;2024-02-26T14:28:55;8.00;99.90
22319;DHT22;11327;52.334;9.506;2024-02-26T14:32:16;8.00;99.90
22319;DHT22;11327;52.334;9.506;2024-02-26T14:35:38;8.00;99.90
22319;DHT22;11327;52.334;9.506;2024-02-26T14:38:58;8.00;99.90
22319;DHT22;11327;52.334;9.506;2024-02-26T14:42:19;8.10;99.90
22319;DHT22;11327;52.334;9.506;2024-02-26T14:45:40;8.10;99.90
22319;DHT22;11327;52.334;9.506;2024-02-26T14:49:01;8.00;99.90
22319;DHT22;11327;52.334;9.506;2024-02-26T14:52:21;8.10;99.90
22319;DHT22;11327;52.334;9.506;2024-02-26T14:55:42;8.00;99.90
22319;DHT22;11327;52.334;9.506;2024-02-26T14:59:03;8.00;99.90
22319;DHT22;11327;52.334;9.506;2024-02-26T15:02:24;8.30;99.90
22319;DHT22;11327;52.334;9.506;2024-02-26T15:05:45;8.00;99.90
22319;DHT22;11327;52.334;9.506;2024-02-26T15:09:06;8.00;99.90
22319;DHT22;11327;52.334;9.506;2024-02-26T15:12:27;8.00;99.90
22319;DHT22;11327;52.334;9.506;2024-02-26T15:15:48;8.00;99.90
22319;DHT22;11327;52.334;9.506;2024-02-26T15:19:09;8.00;99.90
22319;DHT22;11327;52.334;9.506;2024-02-26T15:22:30;8.00;99.90
22319;DHT22;11327;52.334;9.506;2024-02-26T15:25:50;8.00;99.90
22319;DHT22;11327;52.334;9.506;2024-02-26T15:29:12;7.90;99.90
22319;DHT22;11327;52.334;9.506;2024-02-26T15:32:33;7.90;99.90
22319;DHT22;11327;52.334;9.506;2024-02-26T15:35:53;7.90;99.90
22319;DHT22;11327;52.334;9.506;2024-02-26T15:39:14;7.80;99.90
22319;DHT22;11327;52.334;9.506;2024-02-26T15:42:35;7.90;99.90
22319;DHT22;11327;52.334;9.506;2024-02-26T15:45:55;7.90;99.90
22319;DHT22;11327;52.334;9.506;2024-02-26T15:49:16;8.00;99.90
22319;DHT22;11327;52.334;9.506;2024-02-26T15:52:37;7.90;99.90
22319;DHT22;11327;52.334;9.506;2024-02-26T15:55:59;7.90;99.90
22319;DHT22;11327;52.334;9.506;2024-02-26T15:59:20;7.80;99.90
22319;DHT22;11327;52.334;9.506;2024-02-26T16:02:41;7.80;99.90
22319;DHT22;11327;52.334;9.506;2024-02-26T16:06:02;7.80;99.90
22319;DHT22;11327;52.334;9.506;2024-02-26T16:09:23;7.80;99.90
22319;DHT22;11327;52.334;9.506;2024-02-26T16:12:50;7.80;99.90
22319;DHT22;11327;52.334;9.506;2024-02-26T16:16:16;7.70;99.90
22319;DHT22;11327;52.334;9.506;2024-02-26T16:19:36;7.90;99.90
22319;DHT22;11327;52.334;9.506;2024-02-26T16:22:57;8.20;99.90
22319;DHT22;11327;52.334;9.506;2024-02-26T16:26:22;7.80;99.90
22319;DHT22;11327;52.334;9.506;2024-02-26T16:29:43;7.70;99.90
22319;DHT22;11327;52.334;9.506;2024-02-26T16:33:04;7.70;99.90
22319;DHT22;11327;52.334;9.506;2024-02-26T16:36:24;7.70;99.90
22319;DHT22;11327;52.334;9.506;2024-02-26T16:39:45;7.70;99.90
22319;DHT22;11327;52.334;9.506;2024-02-26T16:43:06;7.70;99.90
22319;DHT22;11327;52.334;9.506;2024-02-26T16:46:27;7.70;99.90
22319;DHT22;11327;52.334;9.506;2024-02-26T16:49:48;7.80;99.90
22319;DHT22;11327;52.334;9.506;2024-02-26T16:53:08;8.10;99.90
22319;DHT22;11327;52.334;9.506;2024-02-26T16:56:29;7.70;99.90
22319;DHT22;11327;52.334;9.506;2024-02-26T16:59:50;7.70;99.90
22319;DHT22;11327;52.334;9.506;2024-02-26T17:03:11;7.60;99.90
22319;DHT22;11327;52.334;9.506;2024-02-26T17:06:32;8.10;99.90
22319;DHT22;11327;52.334;9.506;2024-02-26T17:09:53;7.90;99.90
22319;DHT22;11327;52.334;9.506;2024-02-26T17:13:15;7.60;99.90
22319;DHT22;11327;52.334;9.506;2024-02-26T17:16:38;7.60;99.90
22319;DHT22;11327;52.334;9.506;2024-02-26T17:19:58;7.60;99.90
22319;DHT22;11327;52.334;9.506;2024-02-26T17:23:19;8.30;99.90
22319;DHT22;11327;52.334;9.506;2024-02-26T17:26:40;7.60;99.90
22319;DHT22;11327;52.334;9.506;2024-02-26T17:30:01;7.60;99.90
22319;DHT22;11327;52.334;9.506;2024-02-26T17:33:22;7.60;99.90
22319;DHT22;11327;52.334;9.506;2024-02-26T17:36:43;7.60;99.90
22319;DHT22;11327;52.334;9.506;2024-02-26T17:40:04;9.50;99.90
22319;DHT22;11327;52.334;9.506;2024-02-26T17:43:27;7.60;99.90
22319;DHT22;11327;52.334;9.506;2024-02-26T17:46:47;7.60;99.90
22319;DHT22;11327;52.334;9.506;2024-02-26T17:50:08;7.60;99.90
22319;DHT22;11327;52.334;9.506;2024-02-26T17:53:29;7.50;99.90
22319;DHT22;11327;52.334;9.506;2024-02-26T17:56:50;7.50;99.90
22319;DHT22;11327;52.334;9.506;2024-02-26T18:00:12;7.50;99.90
22319;DHT22;11327;52.334;9.506;2024-02-26T18:03:33;7.40;99.90
22319;DHT22;11327;52.334;9.506;2024-02-26T18:06:54;7.40;99.90
22319;DHT22;11327;52.334;9.506;2024-02-26T18:10:15;7.30;99.90
22319;DHT22;11327;52.334;9.506;2024-02-26T18:13:36;7.40;99.90
22319;DHT22;11327;52.334;9.506;2024-02-26T18:16:58;7.30;99.90
22319;DHT22;11327;52.334;9.506;2024-02-26T18:20:19;7.30;99.90
22319;DHT22;11327;52.334;9.506;2024-02-26T18:23:40;7.30;99.90
22319;DHT22;11327;52.334;9.506;2024-02-26T18:27:03;7.20;99.90
22319;DHT22;11327;52.334;9.506;2024-02-26T18:30:24;7.20;99.90
22319;DHT22;11327;52.334;9.506;2024-02-26T18:33:45;7.20;99.90
22319;DHT22;11327;52.334;9.506;2024-02-26T18:37:05;7.20;99.90
22319;DHT22;11327;52.334;9.506;2024-02-26T18:40:27;7.20;99.90
22319;DHT22;11327;52.334;9.506;2024-02-26T18:43:49;7.20;99.90
22319;DHT22;11327;52.334;9.506;2024-02-26T18:47:10;7.20;99.90
22319;DHT22;11327;52.334;9.506;2024-02-26T18:50:30;7.20;99.90
22319;DHT22;11327;52.334;9.506;2024-02-26T18:53:51;7.20;99.90
22319;DHT22;11327;52.334;9.506;2024-02-26T18:57:12;7.20;99.90
22319;DHT22;11327;52.334;9.506;2024-02-26T19:00:32;6.80;99.90
22319;DHT22;11327;52.334;9.506;2024-02-26T19:03:53;7.10;99.90
22319;DHT22;11327;52.334;9.506;2024-02-26T19:07:14;7.10;99.90
22319;DHT22;11327;52.334;9.506;2024-02-26T19:10:34;7.10;99.90
22319;DHT22;11327;52.334;9.506;2024-02-26T19:13:55;7.10;99.90
22319;DHT22;11327;52.334;9.506;2024-02-26T19:17:17;7.10;99.90
22319;DHT22;11327;52.334;9.506;2024-02-26T19:20:38;7.10;99.90
22319;DHT22;11327;52.334;9.506;2024-02-26T19:23:59;7.10;99.90
22319;DHT22;11327;52.334;9.506;2024-02-26T19:27:19;7.10;99.90
22319;DHT22;11327;52.334;9.506;2024-02-26T19:30:40;7.10;99.90
22319;DHT22;11327;52.334;9.506;2024-02-26T19:34:01;7.00;99.90
22319;DHT22;11327;52.334;9.506;2024-02-26T19:37:22;7.60;99.90
22319;DHT22;11327;52.334;9.506;2024-02-26T19:40:44;7.10;99.90
22319;DHT22;11327;52.334;9.506;2024-02-26T19:44:04;7.10;99.90
22319;DHT22;11327;52.334;9.506;2024-02-26T19:47:25;7.40;99.90
22319;DHT22;11327;52.334;9.506;2024-02-26T19:50:46;7.10;99.90
22319;DHT22;11327;52.334;9.506;2024-02-26T19:54:07;7.00;99.90
22319;DHT22;11327;52.334;9.506;2024-02-26T19:57:27;7.00;99.90
22319;DHT22;11327;52.334;9.506;2024-02-26T20:00:48;7.00;99.90
22319;DHT22;11327;52.334;9.506;2024-02-26T20:04:09;8.50;99.90
22319;DHT22;11327;52.334;9.506;2024-02-26T20:07:32;7.00;99.90
22319;DHT22;11327;52.334;9.506;2024-02-26T20:10:52;7.00;99.90
22319;DHT22;11327;52.334;9.506;2024-02-26T20:14:15;6.90;99.90
22319;DHT22;11327;52.334;9.506;2024-02-26T20:17:37;8.50;99.90
22319;DHT22;11327;52.334;9.506;2024-02-26T20:20:57;6.90;99.90
22319;DHT22;11327;52.334;9.506;2024-02-26T20:24:18;6.90;99.90
22319;DHT22;11327;52.334;9.506;2024-02-26T20:27:39;6.80;99.90
22319;DHT22;11327;52.334;9.506;2024-02-26T20:31:00;6.80;99.90
22319;DHT22;11327;52.334;9.506;2024-02-26T20:34:20;6.80;99.90
22319;DHT22;11327;52.334;9.506;2024-02-26T20:37:41;6.80;99.90
22319;DHT22;11327;52.334;9.506;2024-02-26T20:41:02;6.80;99.90
22319;DHT22;11327;52.334;9.506;2024-02-26T20:44:25;6.80;99.90
22319;DHT22;11327;52.334;9.506;2024-02-26T20:47:46;6.80;99.90
22319;DHT22;11327;52.334;9.506;2024-02-26T20:51:09;6.70;99.90
22319;DHT22;11327;52.334;9.506;2024-02-26T20:54:30;6.70;99.90
22319;DHT22;11327;52.334;9.506;2024-02-26T20:57:50;6.70;99.90
22319;DHT22;11327;52.334;9.506;2024-02-26T21:01:11;6.60;99.90
22319;DHT22;11327;52.334;9.506;2024-02-26T21:04:32;6.60;99.90
22319;DHT22;11327;52.334;9.506;2024-02-26T21:07:53;6.50;99.90
22319;DHT22;11327;52.334;9.506;2024-02-26T21:11:14;6.50;99.90
22319;DHT22;11327;52.334;9.506;2024-02-26T21:14:34;6.50;99.90
22319;DHT22;11327;52.334;9.506;2024-02-26T21:17:55;6.50;99.90
22319;DHT22;11327;52.334;9.506;2024-02-26T21:21:16;6.40;99.90
22319;DHT22;11327;52.334;9.506;2024-02-26T21:24:38;6.40;99.90
22319;DHT22;11327;52.334;9.506;2024-02-26T21:27:59;6.40;99.90
22319;DHT22;11327;52.334;9.506;2024-02-26T21:31:21;6.40;99.90